Delta, WA

1:46 AM PST on December 05, 2016 (GMT -0800)
SOUTH LANGLEY | | Change Station
Active Advisory: Winter Weather Advisory

Elev 394 ft 49.04 °N, 122.56 °W | Updated 28 seconds ago

Mostly Cloudy
Mostly Cloudy
31.8 °F
Feels Like 32 °F
N
0.0
Wind Variable Wind from East
Gusts 1.0 mph

Today
High -- | Low -- °F
--% Chance of Precip.
Yesterday
High -- | Low -- °F
Precip. -- in
Pressure 30.10 in
Visibility 10.0 miles
Clouds Mostly Cloudy 2000 ft
Mostly Cloudy 2800 ft
Mostly Cloudy 3900 ft
Windchill 32 °F
Dew Point 30 °F
Humidity 91%
Rainfall 0.00 in
Snow Depth Not available.
7:48 AM 4:13 PM
Waxing Crescent, 30% visible
SPECI KBLI 050907Z AUTO 13007KT 10SM BKN020 BKN028 BKN039 02/00 A3010 RMK AO2 T00220000
Pressure 30.10 in
Visibility 10.0 miles
Clouds Mostly Cloudy 2000 ft
Mostly Cloudy 2800 ft
Mostly Cloudy 3900 ft
Windchill 32 °F
Dew Point 30 °F
Humidity 91%
Rainfall 0.00 in
Snow Depth Not available.
7:48 AM 4:13 PM
Waxing Crescent, 30% visible
SPECI KBLI 050907Z AUTO 13007KT 10SM BKN020 BKN028 BKN039 02/00 A3010 RMK AO2 T00220000

10-Day Weather Forecast

Almanac

Astronomy

Dec. 05, 2016 Rise Set
Actual Time
Civil Twilight
Nautical Twilight
Astronomical Twilight
Moon
Length of Visible Light
Length of Day
Tomorrow will be .
, % of the Moon is Illuminated

Today's Extremes

State Highs State Lows

Community

WunderPhotos

Upload Photos

1,955,775 photos uploaded!

WunderBlog® & News

Nearby

Air Quality

  Air Quality AQ Index Pollutant
Not available.

Snow Depth

Station Depth Elevation

Earthquake Activity

City Distance Mag. Time & Date
Minimum magnitude displayed is 2.5.

Coastal Water Temperatures

Place Temperature

Stations

Nearby Weather Stations

Station Location Temp. Windchill Dew Point Humidity Wind Precip. Elev Updated Type
                   

Watches & Warnings

Winter Weather Advisory
Issued: 9:34 PM PST Dec. 4, 2016 – National Weather Service

... Winter Weather Advisory remains in effect from 4 am to noon PST
Monday...

* timing... Monday morning between 4 am and noon.

* Snow amounts... up to two inches of snow above 500 feet. Areas
around Hood Canal could receive up to three inches. Accumulation
less than one inch below 500 feet.

* Snow levels... mainly near 500 feet.

* Impacts... hazardous driving conditions are possible during the
morning commute on Monday mainly on the higher hills.

Precautionary/preparedness actions...

A Winter Weather Advisory for snow means that periods of snow could
cause travel difficulties. Use caution while driving.